Time;durP1;ratioP1;P1;durP2;ratioP2;P2;SDS_P1;SDS_P2;PMS_P1;PMS_P2;Temp;Humidity;BMP_temperature;BMP_pressure;BME280_temperature;BME280_humidity;BME280_pressure;Samples;Min_cycle;Max_cycle;Signal;HPM_P1;HPM_P2
2023/06/08 00:02:10;;;;;;;14.10;7.47;;;13.60;99.90;;;;;;5044584;28;20247;-78
2023/06/08 00:04:40;;;;;;;13.77;7.70;;;13.50;99.90;;;;;;5040156;28;20284;-77
2023/06/08 00:07:10;;;;;;;16.60;7.70;;;13.50;99.90;;;;;;5047245;28;20252;-79
2023/06/08 00:09:37;;;;;;;13.20;7.80;;;13.40;99.90;;;;;;5041259;28;20234;-79
2023/06/08 00:12:05;;;;;;;13.37;7.43;;;13.40;99.90;;;;;;5042840;28;20227;-79
2023/06/08 00:14:34;;;;;;;14.23;7.53;;;13.30;99.90;;;;;;5044576;28;20215;-79
2023/06/08 00:17:02;;;;;;;12.00;7.13;;;13.20;99.90;;;;;;5038715;28;20220;-79
2023/06/08 00:19:30;;;;;;;18.70;8.10;;;13.20;99.90;;;;;;5042560;28;20230;-79
2023/06/08 00:21:59;;;;;;;15.07;8.23;;;13.20;99.90;;;;;;5038288;28;20230;-79
2023/06/08 00:24:26;;;;;;;15.57;7.83;;;13.10;99.90;;;;;;5039029;28;20250;-79
2023/06/08 00:26:53;;;;;;;15.60;7.13;;;13.10;99.90;;;;;;5040522;28;20242;-79
2023/06/08 00:29:20;;;;;;;14.93;7.97;;;13.10;99.90;;;;;;5042223;28;20701;-79
2023/06/08 00:31:47;;;;;;;15.83;7.70;;;13.00;99.90;;;;;;5043975;28;20374;-79
2023/06/08 00:34:14;;;;;;;17.17;8.00;;;13.00;99.90;;;;;;5038162;28;20219;-79
2023/06/08 00:36:40;;;;;;;14.80;8.03;;;13.00;99.90;;;;;;5047336;28;20286;-79
2023/06/08 00:39:08;;;;;;;17.83;8.83;;;12.90;99.90;;;;;;5043303;28;20256;-79
2023/06/08 00:41:35;;;;;;;15.97;8.10;;;12.90;99.90;;;;;;5056999;28;20235;-78
2023/06/08 00:44:02;;;;;;;17.00;8.17;;;12.90;99.90;;;;;;5036798;28;20303;-78
2023/06/08 00:46:30;;;;;;;12.87;7.83;;;12.80;99.90;;;;;;5038277;28;20648;-78
2023/06/08 00:48:58;;;;;;;15.20;8.23;;;12.80;99.90;;;;;;5040906;28;20226;-78
2023/06/08 00:51:27;;;;;;;17.13;9.10;;;12.70;99.90;;;;;;5040335;28;20222;-78
2023/06/08 00:53:56;;;;;;;16.57;8.90;;;12.70;99.90;;;;;;5040315;28;20305;-78
2023/06/08 00:56:26;;;;;;;16.03;8.50;;;12.60;99.90;;;;;;5040985;28;20230;-78
2023/06/08 00:58:55;;;;;;;17.97;8.50;;;12.60;99.90;;;;;;5041265;28;20769;-78
2023/06/08 01:01:24;;;;;;;18.57;9.20;;;12.50;99.90;;;;;;5038423;28;20229;-78
2023/06/08 01:03:55;;;;;;;17.77;9.50;;;12.50;99.90;;;;;;5039384;28;20230;-78
2023/06/08 01:06:22;;;;;;;18.30;9.30;;;12.40;99.90;;;;;;5040190;28;20230;-78
2023/06/08 01:08:57;;;;;;;18.80;8.37;;;12.40;99.90;;;;;;5047787;28;20235;-78
2023/06/08 01:11:38;;;;;;;20.03;8.93;;;12.30;99.90;;;;;;5037625;28;20627;-79
2023/06/08 01:14:18;;;;;;;17.43;9.60;;;12.30;99.90;;;;;;5038828;28;20232;-80
2023/06/08 01:16:50;;;;;;;18.10;9.00;;;12.30;99.90;;;;;;5040643;28;20635;-79
2023/06/08 01:19:28;;;;;;;18.17;9.27;;;12.20;99.90;;;;;;5044330;28;20220;-80
2023/06/08 01:22:10;;;;;;;19.83;9.57;;;12.20;99.90;;;;;;5065920;28;20649;-79
2023/06/08 01:24:39;;;;;;;17.23;9.17;;;12.10;99.90;;;;;;5069122;28;20230;-79
2023/06/08 01:27:08;;;;;;;16.67;9.33;;;12.10;99.90;;;;;;5035898;28;20223;-79
2023/06/08 01:29:35;;;;;;;20.03;8.80;;;12.00;99.90;;;;;;5045908;28;20224;-79
2023/06/08 01:32:02;;;;;;;16.87;9.57;;;12.00;99.90;;;;;;5039131;28;20244;-79
2023/06/08 01:34:29;;;;;;;19.43;8.97;;;12.00;99.90;;;;;;5038634;28;20761;-79
2023/06/08 01:37:01;;;;;;;13.40;9.20;;;11.90;99.90;;;;;;5058862;28;20224;-78
2023/06/08 01:39:45;;;;;;;15.77;9.33;;;11.90;99.90;;;;;;5039959;28;20262;-79
2023/06/08 01:42:18;;;;;;;17.17;9.57;;;11.80;99.90;;;;;;5036603;28;20772;-78
2023/06/08 01:44:53;;;;;;;15.17;9.47;;;11.80;99.90;;;;;;5040333;28;20223;-78
2023/06/08 01:47:24;;;;;;;15.77;9.37;;;11.80;99.90;;;;;;5035006;28;20223;-77
2023/06/08 01:49:52;;;;;;;20.90;10.03;;;11.70;99.90;;;;;;5041293;28;20334;-78
2023/06/08 01:52:20;;;;;;;18.47;9.70;;;11.70;99.90;;;;;;5040218;28;20243;-78
2023/06/08 01:54:48;;;;;;;21.53;10.10;;;11.70;99.90;;;;;;5041449;28;20219;-78
2023/06/08 01:57:15;;;;;;;17.17;9.30;;;11.60;99.90;;;;;;5042769;28;20794;-78
2023/06/08 01:59:43;;;;;;;19.37;10.87;;;11.60;99.90;;;;;;5054743;28;20223;-78
2023/06/08 02:02:10;;;;;;;17.83;10.03;;;11.60;99.90;;;;;;5036567;28;20220;-78
2023/06/08 02:04:37;;;;;;;18.03;10.33;;;11.60;99.90;;;;;;5056856;28;20239;-78
2023/06/08 02:07:04;;;;;;;17.33;10.43;;;11.50;99.90;;;;;;5042844;28;20226;-77
2023/06/08 02:09:33;;;;;;;20.23;11.00;;;11.50;99.90;;;;;;5035890;28;20241;-77
2023/06/08 02:12:07;;;;;;;21.83;10.73;;;11.50;99.90;;;;;;5036767;28;20300;-77
2023/06/08 02:14:34;;;;;;;20.50;11.13;;;11.40;99.90;;;;;;5037866;28;20242;-80
2023/06/08 02:17:03;;;;;;;19.20;10.90;;;11.40;99.90;;;;;;5042334;28;20233;-79
2023/06/08 02:19:31;;;;;;;21.80;11.13;;;11.40;99.90;;;;;;5040127;28;20426;-80
2023/06/08 02:21:59;;;;;;;18.50;10.43;;;11.40;99.90;;;;;;5046290;28;20224;-78
2023/06/08 02:24:26;;;;;;;17.33;10.97;;;11.30;99.90;;;;;;5038760;28;20244;-79
2023/06/08 02:26:54;;;;;;;20.27;11.27;;;11.30;99.90;;;;;;5038500;28;20362;-78
2023/06/08 02:29:23;;;;;;;19.83;10.87;;;11.30;99.90;;;;;;5037508;28;20312;-78
2023/06/08 02:31:50;;;;;;;16.73;11.17;;;11.30;99.90;;;;;;5034924;28;20220;-78
2023/06/08 02:34:17;;;;;;;18.90;11.33;;;11.30;99.90;;;;;;5041535;28;20233;-77
2023/06/08 02:36:47;;;;;;;21.83;11.77;;;11.20;99.90;;;;;;5037303;28;20316;-77
2023/06/08 02:39:15;;;;;;;18.30;11.00;;;11.20;99.90;;;;;;5039241;28;20225;-78
2023/06/08 02:41:43;;;;;;;17.23;10.53;;;11.20;99.90;;;;;;5037207;28;20220;-78
2023/06/08 02:44:10;;;;;;;19.53;10.80;;;11.20;99.90;;;;;;5035875;28;20224;-78
2023/06/08 02:46:39;;;;;;;18.97;11.27;;;11.20;99.90;;;;;;5039563;28;20230;-77
2023/06/08 02:49:07;;;;;;;21.03;11.50;;;11.20;99.90;;;;;;5043932;28;20299;-78
2023/06/08 02:51:35;;;;;;;19.23;11.50;;;11.10;99.90;;;;;;5038637;28;20226;-78
2023/06/08 02:54:02;;;;;;;18.13;11.47;;;11.10;99.90;;;;;;5044368;28;20220;-79
2023/06/08 02:56:29;;;;;;;24.07;11.40;;;11.10;99.90;;;;;;5035005;28;20233;-78
2023/06/08 02:58:56;;;;;;;21.60;12.40;;;11.10;99.90;;;;;;5038121;28;20249;-79
2023/06/08 03:01:23;;;;;;;24.10;12.47;;;11.10;99.90;;;;;;5038136;28;20231;-79
2023/06/08 03:04:12;;;;;;;21.00;12.50;;;11.00;99.90;;;;;;5036114;28;20338;-78
2023/06/08 03:06:45;;;;;;;19.87;12.23;;;11.00;99.90;;;;;;5038858;28;20247;-79
2023/06/08 03:09:15;;;;;;;19.20;12.23;;;10.90;99.90;;;;;;5034676;28;21072;-78
2023/06/08 03:11:49;;;;;;;17.40;12.33;;;10.90;99.90;;;;;;5040255;28;20235;-78
2023/06/08 03:14:18;;;;;;;22.50;13.20;;;10.80;99.90;;;;;;5040217;28;20310;-78
2023/06/08 03:16:46;;;;;;;20.50;12.93;;;10.80;99.90;;;;;;5031985;28;20798;-78
2023/06/08 03:19:15;;;;;;;17.37;11.37;;;10.80;99.90;;;;;;5032830;28;20229;-78
2023/06/08 03:21:44;;;;;;;18.23;12.07;;;10.80;99.90;;;;;;5037536;28;20239;-78
2023/06/08 03:24:14;;;;;;;18.90;12.77;;;10.70;99.90;;;;;;5038080;28;20246;-78
2023/06/08 03:26:41;;;;;;;23.47;13.17;;;10.80;99.90;;;;;;5039302;28;20959;-78
2023/06/08 03:29:10;;;;;;;17.00;11.87;;;10.80;99.90;;;;;;5042195;28;20282;-78
2023/06/08 03:31:40;;;;;;;21.90;12.73;;;10.80;99.90;;;;;;5038632;28;20308;-78
2023/06/08 03:34:14;;;;;;;16.23;12.23;;;10.70;99.90;;;;;;5040521;28;20248;-78
2023/06/08 03:36:41;;;;;;;19.87;12.70;;;10.70;99.90;;;;;;5046631;28;20234;-78
2023/06/08 03:39:17;;;;;;;17.80;12.87;;;10.70;99.90;;;;;;5042311;28;20655;-78
2023/06/08 03:41:44;;;;;;;20.50;14.00;;;10.80;99.90;;;;;;5043629;28;20220;-78
2023/06/08 03:44:13;;;;;;;21.63;13.53;;;10.80;99.90;;;;;;5042257;28;20231;-78
2023/06/08 03:46:40;;;;;;;19.10;12.77;;;10.70;99.90;;;;;;5041800;28;20224;-79
2023/06/08 03:49:07;;;;;;;17.07;12.73;;;10.80;99.90;;;;;;5035917;28;20757;-79
2023/06/08 03:51:37;;;;;;;16.87;12.63;;;10.80;99.90;;;;;;5036237;28;20248;-80
2023/06/08 03:54:04;;;;;;;17.87;12.87;;;10.80;99.90;;;;;;5041373;28;20254;-79
2023/06/08 03:56:31;;;;;;;28.40;12.97;;;10.90;99.90;;;;;;5041343;28;20224;-80
2023/06/08 03:58:59;;;;;;;35.63;13.40;;;10.80;99.90;;;;;;5062985;28;20315;-81
2023/06/08 04:01:28;;;;;;;31.70;13.37;;;10.90;99.90;;;;;;5041768;28;20230;-79
2023/06/08 04:03:55;;;;;;;20.33;13.23;;;10.80;99.90;;;;;;5046966;28;20219;-80
2023/06/08 04:06:23;;;;;;;29.70;13.73;;;10.80;99.90;;;;;;5041918;28;20237;-80
2023/06/08 04:08:52;;;;;;;18.63;12.57;;;10.90;99.90;;;;;;5034369;28;20225;-80
2023/06/08 04:11:19;;;;;;;16.47;12.40;;;10.80;99.90;;;;;;5058472;28;20224;-80
2023/06/08 04:13:46;;;;;;;17.37;12.20;;;10.80;99.90;;;;;;5035259;28;20227;-81
2023/06/08 04:16:15;;;;;;;16.57;12.37;;;10.90;99.90;;;;;;5036424;28;20724;-82
2023/06/08 04:18:48;;;;;;;17.00;12.07;;;10.90;99.90;;;;;;5039253;28;20216;-78
2023/06/08 04:21:17;;;;;;;15.40;12.03;;;11.00;99.90;;;;;;5040236;28;20225;-79
2023/06/08 04:23:46;;;;;;;19.10;13.03;;;11.00;99.90;;;;;;5050872;28;20230;-78
2023/06/08 04:26:15;;;;;;;16.60;12.87;;;11.10;99.90;;;;;;5057450;28;20231;-77
2023/06/08 04:28:42;;;;;;;13.63;10.70;;;11.10;99.90;;;;;;5047910;28;20250;-77
2023/06/08 04:31:09;;;;;;;15.47;11.60;;;11.20;99.90;;;;;;5049543;28;20230;-77
2023/06/08 04:33:37;;;;;;;14.90;11.53;;;11.20;99.90;;;;;;5047893;28;20242;-78
2023/06/08 04:36:06;;;;;;;15.23;11.53;;;11.30;99.90;;;;;;5044563;28;20719;-83
2023/06/08 04:38:35;;;;;;;21.20;11.97;;;11.40;99.90;;;;;;5047716;28;20213;-80
2023/06/08 04:41:02;;;;;;;17.77;12.43;;;11.50;99.90;;;;;;5044928;28;20288;-80
2023/06/08 04:43:35;;;;;;;17.20;12.43;;;11.50;99.90;;;;;;5047722;28;20313;-79
2023/06/08 04:46:08;;;;;;;13.70;11.60;;;11.60;99.90;;;;;;5052330;28;20230;-79
2023/06/08 04:48:37;;;;;;;15.70;12.33;;;11.70;99.90;;;;;;5050534;28;20248;-79
2023/06/08 04:51:09;;;;;;;18.40;12.93;;;11.70;99.90;;;;;;5042446;28;20874;-79
2023/06/08 04:53:37;;;;;;;17.00;12.37;;;11.80;99.90;;;;;;5049474;28;20272;-79
2023/06/08 04:56:05;;;;;;;17.20;12.27;;;11.90;99.90;;;;;;5048061;28;20247;-79
2023/06/08 04:58:33;;;;;;;16.00;12.23;;;11.90;99.90;;;;;;5066375;28;20315;-79
2023/06/08 05:01:01;;;;;;;15.83;12.10;;;12.00;99.90;;;;;;5054169;28;20232;-79
2023/06/08 05:03:28;;;;;;;17.40;12.60;;;12.10;99.90;;;;;;5073563;28;20242;-79
2023/06/08 05:05:56;;;;;;;17.63;11.40;;;12.10;99.90;;;;;;5052431;28;20222;-78
2023/06/08 05:08:24;;;;;;;18.27;13.37;;;12.20;99.90;;;;;;5052709;28;21501;-80
2023/06/08 05:10:51;;;;;;;17.90;12.90;;;12.20;99.90;;;;;;5053406;28;20234;-79
2023/06/08 05:13:18;;;;;;;15.40;11.93;;;12.30;99.90;;;;;;5054787;28;20367;-79
2023/06/08 05:15:46;;;;;;;14.47;11.37;;;12.30;99.90;;;;;;5052711;28;20222;-79
2023/06/08 05:18:14;;;;;;;16.00;12.63;;;12.40;99.90;;;;;;5054729;28;20237;-79
2023/06/08 05:20:41;;;;;;;17.43;11.67;;;12.50;99.90;;;;;;5052454;28;20231;-81
2023/06/08 05:23:08;;;;;;;15.40;11.40;;;12.50;99.90;;;;;;5047577;28;20226;-79
2023/06/08 05:25:36;;;;;;;15.73;11.87;;;12.60;99.90;;;;;;5049503;28;20943;-79
2023/06/08 05:28:04;;;;;;;17.33;12.53;;;12.70;99.90;;;;;;5048653;28;20272;-79
2023/06/08 05:30:31;;;;;;;13.30;10.50;;;12.70;99.90;;;;;;5053802;28;20227;-80
2023/06/08 05:32:59;;;;;;;14.37;10.93;;;12.70;99.90;;;;;;5050235;28;20223;-79
2023/06/08 05:35:28;;;;;;;13.90;11.10;;;12.80;99.90;;;;;;5056462;28;20234;-80
2023/06/08 05:37:55;;;;;;;16.07;11.90;;;12.80;99.90;;;;;;5056218;28;20230;-80
2023/06/08 05:40:22;;;;;;;14.47;12.23;;;12.80;99.90;;;;;;5052159;28;20234;-80
2023/06/08 05:42:48;;;;;;;18.17;12.63;;;12.90;99.90;;;;;;5051832;28;20220;-80
2023/06/08 05:45:16;;;;;;;15.30;12.33;;;12.90;99.90;;;;;;5055704;28;20430;-80
2023/06/08 05:47:43;;;;;;;16.83;12.70;;;13.10;99.90;;;;;;5054243;28;21037;-80
2023/06/08 05:50:10;;;;;;;17.40;13.47;;;13.20;99.90;;;;;;5051634;28;20220;-80
2023/06/08 05:52:38;;;;;;;16.43;13.27;;;13.30;99.90;;;;;;5051214;28;20235;-80
2023/06/08 05:55:06;;;;;;;16.37;13.20;;;13.40;99.90;;;;;;5054091;28;20223;-80
2023/06/08 05:57:32;;;;;;;16.30;13.30;;;13.50;99.90;;;;;;5049321;28;20600;-80
2023/06/08 05:59:59;;;;;;;18.97;13.10;;;13.60;99.90;;;;;;5052244;28;20235;-80
2023/06/08 06:02:26;;;;;;;17.57;13.27;;;13.70;99.90;;;;;;5033508;28;20471;-79
2023/06/08 06:04:52;;;;;;;17.67;13.43;;;13.90;99.90;;;;;;5052579;28;20704;-80
2023/06/08 06:07:19;;;;;;;15.23;12.70;;;14.00;99.90;;;;;;5054411;28;20741;-79
2023/06/08 06:09:47;;;;;;;16.67;12.90;;;14.20;99.90;;;;;;5054045;28;20227;-80
2023/06/08 06:12:15;;;;;;;16.00;12.30;;;14.40;99.90;;;;;;5055009;28;20216;-80
2023/06/08 06:14:42;;;;;;;15.10;11.88;;;14.50;99.90;;;;;;5051981;28;20220;-80
2023/06/08 06:17:11;;;;;;;15.63;12.40;;;14.70;99.90;;;;;;5082949;28;20702;-80
2023/06/08 06:19:38;;;;;;;13.80;12.03;;;14.90;99.90;;;;;;5056930;28;20222;-80
2023/06/08 06:22:06;;;;;;;14.47;11.20;;;15.00;99.90;;;;;;5052203;28;20287;-80
2023/06/08 06:24:32;;;;;;;14.63;11.53;;;15.20;99.90;;;;;;5050677;28;20728;-80
2023/06/08 06:27:01;;;;;;;14.53;11.70;;;15.30;99.90;;;;;;5053764;28;20323;-81
2023/06/08 06:29:28;;;;;;;15.27;11.93;;;15.30;99.90;;;;;;5048797;28;20228;-79
2023/06/08 06:31:55;;;;;;;13.23;10.95;;;15.40;99.90;;;;;;5048293;28;20220;-79
2023/06/08 06:34:21;;;;;;;17.53;12.30;;;15.40;99.90;;;;;;5069805;28;20814;-80
2023/06/08 06:36:48;;;;;;;12.38;10.73;;;15.50;99.90;;;;;;5055085;28;20236;-80
2023/06/08 06:39:15;;;;;;;14.27;12.07;;;15.50;99.90;;;;;;5050080;28;20247;-80
2023/06/08 06:41:42;;;;;;;14.18;11.52;;;15.50;99.90;;;;;;5052782;28;20230;-80
2023/06/08 06:44:10;;;;;;;15.00;11.98;;;15.60;99.90;;;;;;5055244;28;20310;-80
2023/06/08 06:46:37;;;;;;;15.30;12.13;;;15.60;99.90;;;;;;5051351;28;20244;-80
2023/06/08 06:49:03;;;;;;;13.70;11.10;;;15.70;99.90;;;;;;5052393;28;20220;-80
2023/06/08 06:51:30;;;;;;;13.73;10.57;;;15.80;99.90;;;;;;5051461;28;20224;-80
2023/06/08 06:53:57;;;;;;;13.65;11.57;;;15.80;99.90;;;;;;5052776;28;20220;-80
2023/06/08 06:56:24;;;;;;;15.18;12.35;;;15.90;99.90;;;;;;5050133;28;20323;-80
2023/06/08 06:58:52;;;;;;;17.05;11.77;;;16.00;99.90;;;;;;5050806;28;20223;-81
2023/06/08 07:01:20;;;;;;;14.05;11.23;;;16.10;99.90;;;;;;5046375;28;20239;-80
2023/06/08 07:03:47;;;;;;;14.57;11.65;;;16.30;99.90;;;;;;5052180;28;20252;-80
2023/06/08 07:06:14;;;;;;;14.73;11.82;;;16.60;99.90;;;;;;5050606;28;20646;-80
2023/06/08 07:08:41;;;;;;;14.27;11.57;;;17.00;99.90;;;;;;5051038;28;20295;-80
2023/06/08 07:11:08;;;;;;;14.07;11.00;;;17.50;99.90;;;;;;5056129;28;20220;-80
2023/06/08 07:13:35;;;;;;;17.15;11.18;;;18.00;99.90;;;;;;5056572;28;20395;-80
2023/06/08 07:16:03;;;;;;;17.65;11.68;;;18.60;99.90;;;;;;5054316;28;20275;-80
2023/06/08 07:18:31;;;;;;;14.00;11.20;;;19.20;99.90;;;;;;5052235;28;20247;-80
2023/06/08 07:20:58;;;;;;;14.52;10.63;;;19.70;99.80;;;;;;5058641;28;20215;-80
2023/06/08 07:23:25;;;;;;;13.00;9.98;;;20.40;99.30;;;;;;5058463;28;20240;-81
2023/06/08 07:25:51;;;;;;;12.82;9.60;;;21.00;98.60;;;;;;5056436;28;20304;-80
2023/06/08 07:28:18;;;;;;;12.10;9.20;;;21.60;97.90;;;;;;5056148;28;20232;-81
2023/06/08 07:30:46;;;;;;;13.40;9.35;;;22.20;96.90;;;;;;5055413;28;20294;-81
2023/06/08 07:33:13;;;;;;;12.50;8.90;;;22.70;95.50;;;;;;5057568;28;20280;-81
2023/06/08 07:35:41;;;;;;;12.07;9.43;;;23.10;94.90;;;;;;5051555;28;20227;-81
2023/06/08 07:38:07;;;;;;;10.88;9.02;;;23.50;93.80;;;;;;5052073;28;20828;-80
2023/06/08 07:40:34;;;;;;;13.25;10.00;;;23.80;93.60;;;;;;5055051;28;20333;-80
2023/06/08 07:43:01;;;;;;;12.80;8.45;;;24.30;93.00;;;;;;5052360;28;20220;-81
2023/06/08 07:45:28;;;;;;;10.85;8.32;;;24.70;92.20;;;;;;5055186;28;20258;-81
2023/06/08 07:47:55;;;;;;;12.40;9.60;;;25.10;91.40;;;;;;5054662;28;20968;-80
2023/06/08 07:50:21;;;;;;;12.13;9.68;;;25.50;90.70;;;;;;5049115;28;20900;-80
2023/06/08 07:52:49;;;;;;;12.88;9.38;;;25.80;90.10;;;;;;5050773;28;20872;-80
2023/06/08 07:55:16;;;;;;;13.40;9.25;;;26.10;87.30;;;;;;5055673;28;20797;-80
2023/06/08 07:57:44;;;;;;;10.95;9.40;;;26.40;86.80;;;;;;5054415;28;20319;-81
2023/06/08 08:00:12;;;;;;;12.82;9.05;;;26.70;85.70;;;;;;5050063;28;20809;-80
2023/06/08 08:02:42;;;;;;;9.38;7.82;;;27.00;83.80;;;;;;5060737;28;20227;-80
2023/06/08 08:05:09;;;;;;;11.57;9.07;;;27.30;83.40;;;;;;5050971;28;20213;-80
2023/06/08 08:07:36;;;;;;;11.93;9.30;;;27.60;81.40;;;;;;5047330;28;20227;-81
2023/06/08 08:10:05;;;;;;;13.13;9.50;;;28.00;79.80;;;;;;5054006;28;20924;-80
2023/06/08 08:12:31;;;;;;;13.05;9.23;;;28.20;77.60;;;;;;5045237;28;20255;-81
2023/06/08 08:14:58;;;;;;;11.00;9.48;;;28.30;77.00;;;;;;5053417;28;20216;-80
2023/06/08 08:17:25;;;;;;;11.82;8.98;;;28.50;75.80;;;;;;5052061;28;20216;-80
2023/06/08 08:19:52;;;;;;;14.43;9.43;;;28.80;75.30;;;;;;5050505;28;20315;-80
2023/06/08 08:22:19;;;;;;;13.68;9.70;;;28.90;74.30;;;;;;5053822;28;20291;-80
2023/06/08 08:24:46;;;;;;;14.57;9.00;;;29.10;73.80;;;;;;5056450;28;20713;-80
2023/06/08 08:27:14;;;;;;;11.75;9.70;;;29.30;72.80;;;;;;5050278;28;20745;-80
2023/06/08 08:29:40;;;;;;;11.37;9.10;;;29.50;70.30;;;;;;5054835;28;21000;-80
2023/06/08 08:32:07;;;;;;;12.60;9.50;;;29.60;69.90;;;;;;5046693;28;20216;-80
2023/06/08 08:34:34;;;;;;;10.73;8.10;;;29.70;69.50;;;;;;5054000;28;20315;-81
2023/06/08 08:37:01;;;;;;;12.05;8.80;;;29.80;68.90;;;;;;5052736;28;20314;-80
2023/06/08 08:39:28;;;;;;;13.38;8.65;;;29.80;67.90;;;;;;5048934;28;20228;-81
2023/06/08 08:41:57;;;;;;;13.25;8.95;;;29.80;67.60;;;;;;5049228;28;20304;-80
2023/06/08 08:44:26;;;;;;;13.00;8.35;;;29.90;67.00;;;;;;5049090;28;20291;-80
2023/06/08 08:46:54;;;;;;;14.32;7.43;;;30.10;66.90;;;;;;5052468;28;20804;-80
2023/06/08 08:49:22;;;;;;;11.95;8.18;;;30.20;67.20;;;;;;5053931;28;20234;-80
2023/06/08 08:51:52;;;;;;;14.68;8.13;;;30.50;66.70;;;;;;5047533;28;20279;-81
2023/06/08 08:54:31;;;;;;;11.57;8.23;;;30.80;66.40;;;;;;5055640;28;20239;-80
2023/06/08 08:56:59;;;;;;;12.30;8.27;;;31.10;65.70;;;;;;5053498;28;20296;-81
2023/06/08 08:59:28;;;;;;;11.70;7.43;;;31.40;63.30;;;;;;5051591;28;20291;-81
2023/06/08 09:01:55;;;;;;;12.20;7.72;;;31.60;61.60;;;;;;5052730;28;20251;-80
2023/06/08 09:04:23;;;;;;;12.63;8.40;;;31.70;62.20;;;;;;5053160;28;20220;-81
2023/06/08 09:06:51;;;;;;;12.98;7.40;;;31.80;61.20;;;;;;5055877;28;20240;-81
2023/06/08 09:09:22;;;;;;;10.82;7.40;;;32.00;60.50;;;;;;5048522;28;20224;-80
2023/06/08 09:11:57;;;;;;;9.77;7.20;;;32.20;60.00;;;;;;5049219;28;20850;-80
2023/06/08 09:14:24;;;;;;;10.02;6.93;;;32.30;57.60;;;;;;5051990;28;20232;-81
2023/06/08 09:16:53;;;;;;;10.45;6.45;;;32.30;58.40;;;;;;5051649;28;20247;-80
2023/06/08 09:19:20;;;;;;;10.48;6.90;;;32.30;58.00;;;;;;5046900;28;20240;-80
2023/06/08 09:21:47;;;;;;;8.13;6.40;;;32.30;58.20;;;;;;5066894;28;20220;-79
2023/06/08 09:24:17;;;;;;;9.65;6.35;;;32.20;57.90;;;;;;5075751;28;20220;-79
2023/06/08 09:26:47;;;;;;;9.45;6.43;;;32.10;57.80;;;;;;5055410;28;20644;-79
2023/06/08 09:29:31;;;;;;;9.32;6.13;;;32.10;57.10;;;;;;5051713;28;20284;-80
2023/06/08 09:32:01;;;;;;;10.63;6.70;;;32.10;57.40;;;;;;5051710;28;20367;-79
2023/06/08 09:34:29;;;;;;;9.63;6.60;;;32.10;56.80;;;;;;5053747;28;20224;-79
2023/06/08 09:37:06;;;;;;;13.50;6.95;;;32.20;57.00;;;;;;5057605;28;20224;-79
2023/06/08 09:39:39;;;;;;;10.32;6.43;;;32.20;56.40;;;;;;5054601;28;20287;-79
2023/06/08 09:42:06;;;;;;;12.35;6.53;;;32.30;55.60;;;;;;5054803;28;20220;-80
2023/06/08 09:44:33;;;;;;;10.93;6.50;;;32.30;56.50;;;;;;5057106;28;20228;-79
2023/06/08 09:47:01;;;;;;;11.60;5.95;;;32.50;56.10;;;;;;5056497;28;20247;-79
2023/06/08 09:49:28;;;;;;;13.90;5.85;;;32.70;56.00;;;;;;5054410;28;20224;-79
2023/06/08 09:51:55;;;;;;;11.40;6.53;;;32.90;55.90;;;;;;5051966;28;20739;-81
2023/06/08 09:54:22;;;;;;;9.98;6.28;;;33.10;55.80;;;;;;5044080;28;20259;-77
2023/06/08 09:56:53;;;;;;;10.05;5.80;;;33.30;55.60;;;;;;5044309;28;20228;-77
2023/06/08 09:59:23;;;;;;;10.68;6.00;;;33.40;55.10;;;;;;5044455;28;20219;-78
2023/06/08 10:01:55;;;;;;;10.15;6.30;;;33.60;54.30;;;;;;5043439;28;20219;-78
2023/06/08 10:04:24;;;;;;;11.48;6.70;;;33.80;53.90;;;;;;5046241;28;20232;-77
2023/06/08 10:06:56;;;;;;;11.23;6.30;;;34.00;53.50;;;;;;5051061;28;20251;-77
2023/06/08 10:09:28;;;;;;;10.35;6.47;;;34.20;53.30;;;;;;5046848;28;20262;-78
2023/06/08 10:11:57;;;;;;;11.20;6.07;;;34.40;52.60;;;;;;5046656;28;20236;-76
2023/06/08 10:14:25;;;;;;;8.70;6.18;;;34.60;52.40;;;;;;5045384;28;20227;-78
2023/06/08 10:16:53;;;;;;;11.48;6.03;;;34.60;52.10;;;;;;5041454;28;20619;-78
2023/06/08 10:19:20;;;;;;;8.15;5.93;;;34.70;51.50;;;;;;5045099;28;20327;-79
2023/06/08 10:21:49;;;;;;;9.55;6.28;;;34.70;51.60;;;;;;5047619;28;20701;-78
2023/06/08 10:24:19;;;;;;;11.38;5.97;;;34.70;50.70;;;;;;5042965;28;20236;-76
2023/06/08 10:26:46;;;;;;;10.43;6.07;;;34.70;50.80;;;;;;5041713;28;20224;-78
2023/06/08 10:29:12;;;;;;;10.35;6.05;;;34.70;50.40;;;;;;5043030;28;20254;-76
2023/06/08 10:31:40;;;;;;;9.98;5.95;;;34.70;50.00;;;;;;5041245;28;20232;-78
2023/06/08 10:34:12;;;;;;;9.70;5.68;;;34.70;49.90;;;;;;5041573;28;20220;-78
2023/06/08 10:36:40;;;;;;;8.70;6.43;;;34.70;49.20;;;;;;5041976;28;20221;-78
2023/06/08 10:39:12;;;;;;;9.98;6.50;;;34.80;49.50;;;;;;5051995;28;20220;-76
2023/06/08 10:41:40;;;;;;;12.40;6.60;;;34.90;49.30;;;;;;5047262;28;20242;-78
2023/06/08 10:44:23;;;;;;;11.52;6.10;;;34.90;48.80;;;;;;5046588;28;20226;-78
2023/06/08 10:46:56;;;;;;;8.30;6.43;;;34.90;48.60;;;;;;5044385;28;20255;-78
2023/06/08 10:49:23;;;;;;;9.45;5.75;;;34.90;48.50;;;;;;5044729;28;20597;-78
2023/06/08 10:51:55;;;;;;;10.30;6.15;;;35.00;48.90;;;;;;5047397;28;20227;-78
2023/06/08 10:54:24;;;;;;;8.05;5.65;;;35.10;48.00;;;;;;5037318;28;20223;-78
2023/06/08 10:56:52;;;;;;;8.35;5.88;;;35.20;48.10;;;;;;5044882;28;20712;-79
2023/06/08 10:59:32;;;;;;;7.50;6.15;;;35.30;48.00;;;;;;5042785;28;20753;-78
2023/06/08 11:02:02;;;;;;;6.97;5.72;;;35.30;47.20;;;;;;5037583;28;20216;-77
2023/06/08 11:04:32;;;;;;;9.30;6.80;;;35.30;47.00;;;;;;5043484;28;20231;-78
2023/06/08 11:07:01;;;;;;;9.13;6.00;;;35.20;47.30;;;;;;5042662;28;20221;-78
2023/06/08 11:09:30;;;;;;;7.97;7.13;;;35.20;47.30;;;;;;5041192;28;20219;-76
2023/06/08 11:11:57;;;;;;;8.60;6.80;;;35.10;46.50;;;;;;5044015;28;20236;-78
2023/06/08 11:14:24;;;;;;;7.53;6.30;;;35.10;46.60;;;;;;5045725;28;20231;-79
2023/06/08 11:16:51;;;;;;;9.75;6.80;;;35.10;47.00;;;;;;5046935;28;20234;-78
2023/06/08 11:19:18;;;;;;;9.07;6.78;;;35.20;47.00;;;;;;5043566;28;20224;-78
2023/06/08 11:21:46;;;;;;;8.32;6.72;;;35.30;46.80;;;;;;5039279;28;20948;-79
2023/06/08 11:24:14;;;;;;;9.85;6.90;;;35.50;46.80;;;;;;5054338;28;20219;-78
2023/06/08 11:26:43;;;;;;;9.57;6.40;;;35.70;46.00;;;;;;5041327;28;20998;-78
2023/06/08 11:29:10;;;;;;;11.93;7.28;;;35.90;45.60;;;;;;5048175;28;20213;-78
2023/06/08 11:31:40;;;;;;;9.55;7.18;;;35.90;45.60;;;;;;5038812;28;20236;-78
2023/06/08 11:34:07;;;;;;;8.55;7.50;;;35.90;45.30;;;;;;5044167;28;20223;-78
2023/06/08 11:36:36;;;;;;;8.95;7.20;;;35.90;45.00;;;;;;5047987;28;20308;-78
2023/06/08 11:39:03;;;;;;;9.65;6.97;;;35.90;45.00;;;;;;5045547;28;20297;-77
2023/06/08 11:41:30;;;;;;;14.35;7.30;;;35.80;44.50;;;;;;5043214;28;20399;-78
2023/06/08 11:43:58;;;;;;;7.88;6.57;;;35.80;45.00;;;;;;5043921;28;20224;-78
2023/06/08 11:46:26;;;;;;;7.60;6.75;;;35.60;44.60;;;;;;5044926;28;20248;-79
2023/06/08 11:48:53;;;;;;;9.50;7.13;;;35.60;44.60;;;;;;5039263;28;20280;-78
2023/06/08 11:51:22;;;;;;;9.57;6.63;;;35.50;44.20;;;;;;5043076;28;20236;-79
2023/06/08 11:53:49;;;;;;;10.18;6.93;;;35.40;44.10;;;;;;5044462;28;20281;-78
2023/06/08 11:56:15;;;;;;;10.15;6.70;;;35.30;44.40;;;;;;5048319;28;20698;-77
2023/06/08 11:58:42;;;;;;;8.10;6.70;;;35.20;44.60;;;;;;5052054;28;20311;-77
2023/06/08 12:01:13;;;;;;;9.00;6.20;;;35.10;44.30;;;;;;5045366;28;20227;-77
2023/06/08 12:03:43;;;;;;;7.13;6.40;;;35.10;44.00;;;;;;5052862;28;20263;-77
2023/06/08 12:06:10;;;;;;;12.23;6.90;;;35.20;43.70;;;;;;5050519;28;20315;-78
2023/06/08 12:08:37;;;;;;;8.23;6.53;;;35.20;43.70;;;;;;5050772;28;20232;-78
2023/06/08 12:11:11;;;;;;;8.90;7.28;;;35.10;43.30;;;;;;5046638;28;20674;-78
2023/06/08 12:13:40;;;;;;;7.80;6.43;;;35.10;43.70;;;;;;5050557;28;20227;-78
2023/06/08 12:16:07;;;;;;;7.63;6.22;;;35.00;44.40;;;;;;5049147;28;20702;-78
2023/06/08 12:18:39;;;;;;;7.78;5.93;;;34.90;43.80;;;;;;5048070;28;20343;-77
2023/06/08 12:21:08;;;;;;;8.55;5.55;;;34.80;44.30;;;;;;5048588;28;20230;-77
2023/06/08 12:23:35;;;;;;;5.88;5.10;;;34.80;43.90;;;;;;5048424;28;20232;-78
2023/06/08 12:26:01;;;;;;;7.78;5.18;;;34.80;43.70;;;;;;5054961;28;20706;-77
2023/06/08 12:28:28;;;;;;;9.27;5.28;;;34.80;43.40;;;;;;5039892;28;20288;-76
2023/06/08 12:30:57;;;;;;;7.57;5.13;;;34.80;43.20;;;;;;5050120;28;20314;-76
2023/06/08 12:33:24;;;;;;;5.90;4.75;;;34.70;43.00;;;;;;5039340;28;20251;-78
2023/06/08 12:35:54;;;;;;;6.45;4.65;;;34.60;43.30;;;;;;5039208;28;20569;-78
2023/06/08 12:38:21;;;;;;;5.60;4.57;;;34.40;43.10;;;;;;5043005;28;20236;-77
2023/06/08 12:40:50;;;;;;;7.55;4.68;;;34.20;43.10;;;;;;5046268;28;20216;-77